createdAt,value
2023-01-19T00:01:35.981Z,11.37
2023-01-19T00:04:26.402Z,11.42
2023-01-19T00:07:16.602Z,11.48
2023-01-19T00:10:08.557Z,11.54
2023-01-19T00:12:58.784Z,11.56
2023-01-19T00:15:49.027Z,11.59
2023-01-19T00:18:39.476Z,11.64
2023-01-19T00:21:29.483Z,11.65
2023-01-19T00:24:19.742Z,11.54
2023-01-19T00:27:10.673Z,11.44
2023-01-19T00:30:01.507Z,11.45
2023-01-19T00:32:51.166Z,11.45
2023-01-19T00:35:42.882Z,11.48
2023-01-19T00:38:33.265Z,11.52
2023-01-19T00:41:44.234Z,11.52
2023-01-19T00:44:34.721Z,11.52
2023-01-19T00:47:24.892Z,11.46
2023-01-19T00:50:17.783Z,11.44
2023-01-19T00:53:07.774Z,11.43
2023-01-19T00:55:57.436Z,11.38
2023-01-19T00:58:47.645Z,11.33
2023-01-19T01:01:45.811Z,11.34
2023-01-19T01:04:40.594Z,11.37
2023-01-19T01:07:35.155Z,11.41
2023-01-19T01:10:27.588Z,11.41
2023-01-19T01:13:20.876Z,11.41
2023-01-19T01:16:15.586Z,11.42
2023-01-19T01:19:05.376Z,11.44
2023-01-19T01:21:56.086Z,11.45
2023-01-19T01:24:45.641Z,11.47
2023-01-19T01:27:35.682Z,11.47
2023-01-19T01:30:26.356Z,11.49
2023-01-19T01:33:40.670Z,11.44
2023-01-19T01:36:33.583Z,11.36
2023-01-19T01:39:24.645Z,11.33
2023-01-19T01:42:19.717Z,11.32
2023-01-19T01:45:28.432Z,11.31
2023-01-19T01:48:22.905Z,11.29
2023-01-19T01:51:28.511Z,11.23
2023-01-19T01:54:22.282Z,11.11
2023-01-19T01:57:13.884Z,11.01
2023-01-19T02:00:05.919Z,10.97
2023-01-19T02:02:56.869Z,10.98
2023-01-19T02:05:47.939Z,10.96
2023-01-19T02:09:01.112Z,10.94
2023-01-19T02:12:09.513Z,10.91
2023-01-19T02:14:59.687Z,10.87
2023-01-19T02:17:51.003Z,10.87
2023-01-19T02:20:43.863Z,10.89
2023-01-19T02:23:42.315Z,10.91
2023-01-19T02:26:36.993Z,10.95
2023-01-19T02:29:29.253Z,10.98
2023-01-19T02:32:19.483Z,10.96
2023-01-19T02:35:11.596Z,10.85
2023-01-19T02:38:02.849Z,10.66
2023-01-19T02:40:54.852Z,10.44
2023-01-19T02:43:46.437Z,10.25
2023-01-19T02:46:36.656Z,10.07
2023-01-19T02:49:28.784Z,9.87
2023-01-19T02:52:20.617Z,9.75
2023-01-19T02:55:19.547Z,9.63
2023-01-19T02:58:17.112Z,9.58
2023-01-19T03:01:18.157Z,9.60
2023-01-19T03:04:14.795Z,9.61
2023-01-19T03:07:10.508Z,9.56
2023-01-19T03:10:07.697Z,9.57
2023-01-19T03:13:03.508Z,9.48
2023-01-19T03:15:58.725Z,9.42
2023-01-19T03:18:52.855Z,9.44
2023-01-19T03:21:48.420Z,9.35
2023-01-19T03:24:41.729Z,9.28
2023-01-19T03:27:40.836Z,9.26
2023-01-19T03:30:33.750Z,9.25
2023-01-19T03:33:29.710Z,9.28
2023-01-19T03:36:24.850Z,9.33
2023-01-19T03:39:22.925Z,9.42
2023-01-19T03:42:17.353Z,9.53
2023-01-19T03:45:10.357Z,9.59
2023-01-19T03:48:01.771Z,9.59
2023-01-19T03:50:52.858Z,9.60
2023-01-19T03:53:43.567Z,9.62
2023-01-19T03:56:34.044Z,9.66
2023-01-19T03:59:24.788Z,9.68
2023-01-19T04:02:15.174Z,9.74
2023-01-19T04:05:05.407Z,9.83
2023-01-19T04:07:55.746Z,9.92
2023-01-19T04:10:46.160Z,9.99
2023-01-19T04:13:37.243Z,10.05
2023-01-19T04:16:27.438Z,10.11
2023-01-19T04:19:17.620Z,10.13
2023-01-19T04:22:07.929Z,10.15
2023-01-19T04:24:59.815Z,10.21
2023-01-19T04:27:52.561Z,10.26
2023-01-19T04:30:42.979Z,10.29
2023-01-19T04:33:33.948Z,10.26
2023-01-19T04:36:24.199Z,10.23
2023-01-19T04:39:15.084Z,10.25
2023-01-19T04:42:06.463Z,10.28
2023-01-19T04:44:56.824Z,10.33
2023-01-19T04:47:47.137Z,10.39
2023-01-19T04:50:37.128Z,10.44
2023-01-19T04:53:27.111Z,10.50
2023-01-19T04:56:17.138Z,10.55
2023-01-19T04:59:07.742Z,10.59
2023-01-19T05:01:58.348Z,10.63
2023-01-19T05:04:48.852Z,10.66
2023-01-19T05:07:38.978Z,10.70
2023-01-19T05:10:29.413Z,10.73
2023-01-19T05:13:19.611Z,10.75
2023-01-19T05:16:10.588Z,10.77
2023-01-19T05:19:00.535Z,10.77
2023-01-19T05:21:50.894Z,10.76
2023-01-19T05:24:41.915Z,10.76
2023-01-19T05:27:31.946Z,10.75
2023-01-19T05:30:22.423Z,10.68
2023-01-19T05:33:12.708Z,10.63
2023-01-19T05:36:04.512Z,10.55
2023-01-19T05:38:54.856Z,10.46
2023-01-19T05:41:46.011Z,10.39
2023-01-19T05:44:36.301Z,10.32
2023-01-19T05:47:26.599Z,10.24
2023-01-19T05:50:17.209Z,10.14
2023-01-19T05:53:07.347Z,10.04
2023-01-19T05:56:02.476Z,9.99
2023-01-19T05:58:52.876Z,9.93
2023-01-19T06:01:43.560Z,9.84
2023-01-19T06:04:33.873Z,9.77
2023-01-19T06:07:24.588Z,9.73
2023-01-19T06:10:16.041Z,9.71
2023-01-19T06:13:07.071Z,9.70
2023-01-19T06:16:02.286Z,9.71
2023-01-19T06:18:52.851Z,9.70
2023-01-19T06:21:49.498Z,9.71
2023-01-19T06:24:39.539Z,9.73
2023-01-19T06:27:29.817Z,9.78
2023-01-19T06:30:21.220Z,9.82
2023-01-19T06:33:11.615Z,9.86
2023-01-19T06:36:02.234Z,9.92
2023-01-19T06:38:52.745Z,9.97
2023-01-19T06:41:42.421Z,10.03
2023-01-19T06:44:32.709Z,10.11
2023-01-19T06:47:23.492Z,10.18
2023-01-19T06:50:14.341Z,10.24
2023-01-19T06:53:05.125Z,10.36
2023-01-19T06:55:55.191Z,10.54
2023-01-19T06:58:48.136Z,10.68
2023-01-19T07:01:38.849Z,10.74
2023-01-19T07:04:29.186Z,10.60
2023-01-19T07:07:19.259Z,10.52
2023-01-19T07:10:11.912Z,10.68
2023-01-19T07:13:02.440Z,10.86
2023-01-19T07:15:53.078Z,10.92
2023-01-19T07:18:43.942Z,10.95
2023-01-19T07:21:33.784Z,10.88
2023-01-19T07:24:24.081Z,10.78
2023-01-19T07:27:15.011Z,10.79
2023-01-19T07:30:06.261Z,10.86
2023-01-19T07:32:58.942Z,10.89
2023-01-19T07:35:50.930Z,10.93
2023-01-19T07:38:41.048Z,10.99
2023-01-19T07:41:31.089Z,10.98
2023-01-19T07:44:21.681Z,11.01
2023-01-19T07:47:12.790Z,11.12
2023-01-19T07:50:03.580Z,11.09
2023-01-19T07:52:53.754Z,11.08
2023-01-19T07:55:43.837Z,11.07
2023-01-19T07:58:33.949Z,11.08
2023-01-19T08:01:24.699Z,11.24
2023-01-19T08:04:15.287Z,11.56
2023-01-19T08:07:05.785Z,11.88
2023-01-19T08:09:55.944Z,11.91
2023-01-19T08:12:45.992Z,11.77
2023-01-19T08:15:36.338Z,11.60
2023-01-19T08:18:26.976Z,11.49
2023-01-19T08:21:17.229Z,11.40
2023-01-19T08:24:07.580Z,11.34
2023-01-19T08:27:02.578Z,11.33
2023-01-19T08:29:54.632Z,11.32
2023-01-19T08:32:44.525Z,11.28
2023-01-19T08:35:36.887Z,11.28
2023-01-19T08:38:27.291Z,11.28
2023-01-19T08:41:18.319Z,11.26
2023-01-19T08:44:08.622Z,11.25
2023-01-19T08:46:58.558Z,11.27
2023-01-19T08:49:48.479Z,11.28
2023-01-19T08:52:38.576Z,11.28
2023-01-19T08:55:30.398Z,11.27
2023-01-19T08:58:20.686Z,11.28
2023-01-19T09:01:14.063Z,11.28
2023-01-19T09:04:04.403Z,11.30
2023-01-19T09:06:54.781Z,11.32
2023-01-19T09:09:44.959Z,11.34
2023-01-19T09:12:35.711Z,11.36
2023-01-19T09:15:25.913Z,11.37
2023-01-19T09:18:17.388Z,11.39
2023-01-19T09:21:08.483Z,11.43
2023-01-19T09:23:58.701Z,11.46
2023-01-19T09:26:48.520Z,11.52
2023-01-19T09:29:38.714Z,11.61
2023-01-19T09:32:28.742Z,11.70
2023-01-19T09:35:19.512Z,11.85
2023-01-19T09:38:10.699Z,12.01
2023-01-19T09:41:00.958Z,12.21
2023-01-19T09:43:56.508Z,12.38
2023-01-19T09:46:46.976Z,12.58
2023-01-19T09:49:42.359Z,12.84
2023-01-19T09:52:37.322Z,13.23
2023-01-19T09:55:29.244Z,13.68
2023-01-19T09:58:21.003Z,14.23
2023-01-19T10:01:35.286Z,14.90
2023-01-19T10:04:35.763Z,15.34
2023-01-19T10:08:03.839Z,15.37
2023-01-19T10:10:56.157Z,15.30
2023-01-19T10:13:52.431Z,15.17
2023-01-19T10:16:50.794Z,15.18
2023-01-19T10:19:46.896Z,15.19
2023-01-19T10:22:37.585Z,15.22
2023-01-19T10:25:28.266Z,15.53
2023-01-19T10:28:23.705Z,16.16
2023-01-19T10:31:14.896Z,16.82
2023-01-19T10:34:05.594Z,17.65
2023-01-19T10:37:00.519Z,18.34
2023-01-19T10:39:57.152Z,19.08
2023-01-19T10:42:47.851Z,19.59
2023-01-19T10:45:37.908Z,19.88
2023-01-19T10:48:28.096Z,20.54
2023-01-19T10:51:20.525Z,21.32
2023-01-19T10:54:15.271Z,22.09
2023-01-19T10:57:09.306Z,23.09
2023-01-19T11:00:00.452Z,24.05
2023-01-19T11:02:53.994Z,24.80
2023-01-19T11:05:44.143Z,25.75
2023-01-19T11:08:34.138Z,26.48
2023-01-19T11:11:26.377Z,26.76
2023-01-19T11:14:19.842Z,26.81
2023-01-19T11:17:21.003Z,26.46
2023-01-19T11:20:22.539Z,25.82
2023-01-19T11:23:24.550Z,25.44
2023-01-19T11:26:26.185Z,24.93
2023-01-19T11:29:22.484Z,24.34
2023-01-19T11:32:23.487Z,23.98
2023-01-19T11:35:36.180Z,23.67
2023-01-19T11:38:27.740Z,23.48
2023-01-19T11:41:23.225Z,23.46
2023-01-19T11:44:22.376Z,23.49
2023-01-19T11:47:20.677Z,23.36
2023-01-19T11:50:24.141Z,23.17
2023-01-19T11:53:19.289Z,22.94
2023-01-19T11:56:15.387Z,22.62
2023-01-19T11:59:07.347Z,21.89
2023-01-19T12:02:00.714Z,21.03
2023-01-19T12:04:56.183Z,20.31
2023-01-19T12:07:50.288Z,19.77
2023-01-19T12:10:43.892Z,19.33
2023-01-19T12:13:37.877Z,18.85
2023-01-19T12:16:34.582Z,18.52
2023-01-19T12:19:31.374Z,18.34
2023-01-19T12:22:25.093Z,18.32
2023-01-19T12:25:22.923Z,18.27
2023-01-19T12:28:18.579Z,18.02
2023-01-19T12:31:10.950Z,17.56
2023-01-19T12:34:41.669Z,17.10
2023-01-19T12:37:45.459Z,16.71
2023-01-19T12:40:37.357Z,16.44
2023-01-19T12:43:29.496Z,16.24
2023-01-19T12:46:29.873Z,16.08
2023-01-19T12:49:28.637Z,15.94
2023-01-19T12:52:28.829Z,15.93
2023-01-19T12:55:31.295Z,15.98
2023-01-19T12:58:27.169Z,15.98
2023-01-19T13:01:22.144Z,16.03
2023-01-19T13:04:35.119Z,16.04
2023-01-19T13:07:29.556Z,16.04
2023-01-19T13:11:10.739Z,16.01
2023-01-19T13:14:37.679Z,15.92
2023-01-19T13:17:34.312Z,15.75
2023-01-19T13:20:33.649Z,15.59
2023-01-19T13:23:28.416Z,15.45
2023-01-19T13:26:21.636Z,15.26
2023-01-19T13:29:22.736Z,15.07
2023-01-19T13:32:24.627Z,14.91
2023-01-19T13:35:22.039Z,14.77
2023-01-19T13:38:16.147Z,14.64
2023-01-19T13:41:07.709Z,14.50
2023-01-19T13:44:04.202Z,14.39
2023-01-19T13:46:59.847Z,14.29
2023-01-19T13:49:53.320Z,14.19
2023-01-19T13:52:49.175Z,14.13
2023-01-19T13:55:43.916Z,14.07
2023-01-19T13:58:36.276Z,14.02
2023-01-19T14:01:29.795Z,13.94
2023-01-19T14:04:32.759Z,13.89
2023-01-19T14:07:26.656Z,13.86
2023-01-19T14:10:19.799Z,13.84
2023-01-19T14:13:19.007Z,13.79
2023-01-19T14:16:16.134Z,13.74
2023-01-19T14:19:06.337Z,13.70
2023-01-19T14:22:05.390Z,13.66
2023-01-19T14:24:55.316Z,13.61
2023-01-19T14:27:46.133Z,13.57
2023-01-19T14:30:36.940Z,13.51
2023-01-19T14:33:46.278Z,13.47
2023-01-19T14:36:42.121Z,13.44
2023-01-19T14:39:35.879Z,13.41
2023-01-19T14:42:32.149Z,13.43
2023-01-19T14:45:24.794Z,13.46
2023-01-19T14:48:19.633Z,13.51
2023-01-19T14:51:17.134Z,13.57
2023-01-19T14:54:08.060Z,13.63
2023-01-19T14:56:58.523Z,13.68
2023-01-19T14:59:50.529Z,13.69
2023-01-19T15:02:40.691Z,13.70
2023-01-19T15:05:30.801Z,13.69
2023-01-19T15:08:26.377Z,13.65
2023-01-19T15:11:24.175Z,13.64
2023-01-19T15:14:16.814Z,13.61
2023-01-19T15:17:06.919Z,13.56
2023-01-19T15:19:58.631Z,13.52
2023-01-19T15:22:48.994Z,13.47
2023-01-19T15:25:39.838Z,13.42
2023-01-19T15:28:31.127Z,13.36
2023-01-19T15:31:23.196Z,13.33
2023-01-19T15:34:15.645Z,13.29
2023-01-19T15:37:05.896Z,13.23
2023-01-19T15:39:57.118Z,13.16
2023-01-19T15:42:47.640Z,13.13
2023-01-19T15:45:45.005Z,13.09
2023-01-19T15:48:35.385Z,13.06
2023-01-19T15:51:27.386Z,13.01
2023-01-19T15:54:19.581Z,12.97
2023-01-19T15:57:12.162Z,12.92
2023-01-19T16:00:03.288Z,12.89
2023-01-19T16:03:00.791Z,12.85
2023-01-19T16:05:50.805Z,12.79
2023-01-19T16:08:41.361Z,12.74
2023-01-19T16:11:33.079Z,12.69
2023-01-19T16:14:23.097Z,12.62
2023-01-19T16:17:12.948Z,12.56
2023-01-19T16:20:02.840Z,12.48
2023-01-19T16:22:56.488Z,12.41
2023-01-19T16:25:55.737Z,12.32
2023-01-19T16:28:46.191Z,12.23
2023-01-19T16:31:36.627Z,12.16
2023-01-19T16:34:27.302Z,12.07
2023-01-19T16:37:17.279Z,11.98
2023-01-19T16:40:09.660Z,11.90
2023-01-19T16:43:00.871Z,11.82
2023-01-19T16:46:02.841Z,11.76
2023-01-19T16:48:53.444Z,11.71
2023-01-19T16:51:44.115Z,11.66
2023-01-19T16:54:35.006Z,11.61
2023-01-19T16:57:25.710Z,11.56
2023-01-19T17:00:18.260Z,11.50
2023-01-19T17:03:09.445Z,11.43
2023-01-19T17:06:00.284Z,11.38
2023-01-19T17:08:50.833Z,11.34
2023-01-19T17:11:41.477Z,11.30
2023-01-19T17:14:32.065Z,11.25
2023-01-19T17:17:22.153Z,11.20
2023-01-19T17:20:14.807Z,11.16
2023-01-19T17:23:04.598Z,11.12
2023-01-19T17:25:58.603Z,11.08
2023-01-19T17:28:49.417Z,11.03
2023-01-19T17:31:40.291Z,10.98
2023-01-19T17:34:30.781Z,10.95
2023-01-19T17:37:20.861Z,10.90
2023-01-19T17:40:13.742Z,10.86
2023-01-19T17:43:04.427Z,10.82
2023-01-19T17:45:54.899Z,10.78
2023-01-19T17:48:45.518Z,10.75
2023-01-19T17:51:36.397Z,10.71
2023-01-19T17:54:26.864Z,10.69
2023-01-19T17:57:17.330Z,10.68
2023-01-19T18:00:09.639Z,10.67
2023-01-19T18:03:03.586Z,10.66
2023-01-19T18:05:57.492Z,10.68
2023-01-19T18:08:48.899Z,10.69
2023-01-19T18:11:39.032Z,10.68
2023-01-19T18:14:29.002Z,10.66
2023-01-19T18:17:19.620Z,10.64
2023-01-19T18:20:12.694Z,10.63
2023-01-19T18:23:06.291Z,10.63
2023-01-19T18:26:02.338Z,10.63
2023-01-19T18:28:55.725Z,10.63
2023-01-19T18:31:45.748Z,10.62
2023-01-19T18:34:35.974Z,10.61
2023-01-19T18:37:25.937Z,10.60
2023-01-19T18:40:16.836Z,10.59
2023-01-19T18:43:07.161Z,10.56
2023-01-19T18:45:56.954Z,10.55
2023-01-19T18:48:47.771Z,10.53
2023-01-19T18:51:39.633Z,10.52
2023-01-19T18:54:29.768Z,10.51
2023-01-19T18:57:20.461Z,10.48
2023-01-19T19:00:14.410Z,10.46
2023-01-19T19:03:10.669Z,10.44
2023-01-19T19:06:05.264Z,10.41
2023-01-19T19:08:56.479Z,10.40
2023-01-19T19:11:47.086Z,10.37
2023-01-19T19:14:37.813Z,10.35
2023-01-19T19:17:27.818Z,10.33
2023-01-19T19:20:19.558Z,10.31
2023-01-19T19:23:10.127Z,10.30
2023-01-19T19:26:04.563Z,10.29
2023-01-19T19:28:54.767Z,10.27
2023-01-19T19:31:46.246Z,10.24
2023-01-19T19:34:36.480Z,10.23
2023-01-19T19:37:26.809Z,10.22
2023-01-19T19:40:17.725Z,10.22
2023-01-19T19:43:07.978Z,10.22
2023-01-19T19:46:03.638Z,10.22
2023-01-19T19:48:54.757Z,10.22
2023-01-19T19:51:44.843Z,10.21
2023-01-19T19:54:35.549Z,10.17
2023-01-19T19:57:25.978Z,10.14
2023-01-19T20:00:17.401Z,10.11
2023-01-19T20:03:13.745Z,10.09
2023-01-19T20:06:08.223Z,10.09
2023-01-19T20:08:59.352Z,10.08
2023-01-19T20:11:50.082Z,10.08
2023-01-19T20:14:40.842Z,10.08
2023-01-19T20:17:31.544Z,10.06
2023-01-19T20:20:22.192Z,10.06
2023-01-19T20:23:12.433Z,10.06
2023-01-19T20:26:07.917Z,10.06
2023-01-19T20:29:02.501Z,10.05
2023-01-19T20:31:55.019Z,10.04
2023-01-19T20:34:45.695Z,10.02
2023-01-19T20:37:37.614Z,10.00
2023-01-19T20:40:27.702Z,9.98
2023-01-19T20:43:18.001Z,9.96
2023-01-19T20:46:08.774Z,9.96
2023-01-19T20:48:59.253Z,9.95
2023-01-19T20:51:51.896Z,9.94
2023-01-19T20:54:42.562Z,9.93
2023-01-19T20:57:32.793Z,9.91
2023-01-19T21:00:25.151Z,9.88
2023-01-19T21:03:15.446Z,9.86
2023-01-19T21:06:05.581Z,9.86
2023-01-19T21:08:57.515Z,9.89
2023-01-19T21:11:47.479Z,9.91
2023-01-19T21:14:38.488Z,9.91
2023-01-19T21:17:28.676Z,9.88
2023-01-19T21:20:19.469Z,9.86
2023-01-19T21:23:10.904Z,9.87
2023-01-19T21:26:02.304Z,9.90
2023-01-19T21:28:52.465Z,9.87
2023-01-19T21:31:42.949Z,9.84
2023-01-19T21:34:33.799Z,9.82
2023-01-19T21:37:24.393Z,9.84
2023-01-19T21:40:16.444Z,9.84
2023-01-19T21:43:06.522Z,9.85
2023-01-19T21:45:56.899Z,9.82
2023-01-19T21:48:47.471Z,9.75
2023-01-19T21:51:40.087Z,9.71
2023-01-19T21:54:30.672Z,9.67
2023-01-19T21:57:21.264Z,9.63
2023-01-19T22:00:14.129Z,9.60
2023-01-19T22:03:04.957Z,9.58
2023-01-19T22:05:56.111Z,9.57
2023-01-19T22:08:47.450Z,9.55
2023-01-19T22:11:37.881Z,9.53
2023-01-19T22:14:28.693Z,9.50
2023-01-19T22:17:18.580Z,9.49
2023-01-19T22:20:12.061Z,9.49
2023-01-19T22:23:01.865Z,9.49
2023-01-19T22:25:52.056Z,9.48
2023-01-19T22:28:42.364Z,9.48
2023-01-19T22:31:33.267Z,9.47
2023-01-19T22:34:23.646Z,9.46
2023-01-19T22:37:13.807Z,9.46
2023-01-19T22:40:03.712Z,9.45
2023-01-19T22:42:53.981Z,9.44
2023-01-19T22:45:44.783Z,9.44
2023-01-19T22:48:36.228Z,9.44
2023-01-19T22:51:27.854Z,9.44
2023-01-19T22:54:18.559Z,9.43
2023-01-19T22:57:11.682Z,9.40
2023-01-19T23:00:02.540Z,9.38
2023-01-19T23:02:53.218Z,9.37
2023-01-19T23:05:43.879Z,9.38
2023-01-19T23:08:35.419Z,9.37
2023-01-19T23:11:28.240Z,9.35
2023-01-19T23:14:19.570Z,9.36
2023-01-19T23:17:09.851Z,9.35
2023-01-19T23:20:00.114Z,9.34
2023-01-19T23:22:50.079Z,9.34
2023-01-19T23:25:40.568Z,9.34
2023-01-19T23:28:30.659Z,9.33
2023-01-19T23:31:23.182Z,9.32
2023-01-19T23:34:14.903Z,9.30
2023-01-19T23:37:04.818Z,9.29
2023-01-19T23:39:54.686Z,9.29
2023-01-19T23:42:44.882Z,9.30
2023-01-19T23:45:38.551Z,9.29
2023-01-19T23:48:29.000Z,9.27
2023-01-19T23:51:21.285Z,9.24
2023-01-19T23:54:12.381Z,9.22
2023-01-19T23:57:02.448Z,9.21
2023-01-19T23:59:52.801Z,9.19
